createdAt,value
2023-04-06T00:02:08.387Z,-2.73
2023-04-06T00:05:47.583Z,-2.79
2023-04-06T00:09:23.928Z,-2.84
2023-04-06T00:13:01.576Z,-2.92
2023-04-06T00:16:39.331Z,-2.98
2023-04-06T00:20:17.111Z,-3.05
2023-04-06T00:24:13.371Z,-3.12
2023-04-06T00:27:55.097Z,-3.18
2023-04-06T00:31:17.680Z,-3.21
2023-04-06T00:34:55.665Z,-3.23
2023-04-06T00:38:51.895Z,-3.24
2023-04-06T00:42:33.533Z,-3.25
2023-04-06T00:45:56.192Z,-3.26
2023-04-06T00:49:34.722Z,-3.26
2023-04-06T00:53:11.291Z,-3.30
2023-04-06T00:57:07.747Z,-3.30
2023-04-06T01:00:30.013Z,-3.26
2023-04-06T01:04:07.873Z,-3.22
2023-04-06T01:07:45.787Z,-3.19
2023-04-06T01:11:41.880Z,-3.30
2023-04-06T01:15:26.160Z,-3.36
2023-04-06T01:18:48.471Z,-3.44
2023-04-06T01:22:26.360Z,-3.53
2023-04-06T01:26:03.761Z,-3.60
2023-04-06T01:30:00.594Z,-3.66
2023-04-06T01:33:33.609Z,-3.74
2023-04-06T01:37:11.572Z,-3.82
2023-04-06T01:40:48.915Z,-3.89
2023-04-06T01:44:45.929Z,-4.02
2023-04-06T01:48:10.504Z,-4.14
2023-04-06T01:51:47.966Z,-4.32
2023-04-06T01:55:44.644Z,-4.54
2023-04-06T01:59:20.653Z,-4.73
2023-04-06T02:03:32.016Z,-4.83
2023-04-06T02:07:00.656Z,-4.85
2023-04-06T02:10:38.166Z,-4.80
2023-04-06T02:14:35.158Z,-4.75
2023-04-06T02:17:58.515Z,-4.76
2023-04-06T02:21:54.687Z,-4.77
2023-04-06T02:25:17.023Z,-4.87
2023-04-06T02:28:54.782Z,-4.90
2023-04-06T02:32:32.307Z,-4.90
2023-04-06T02:36:10.412Z,-4.94
2023-04-06T02:40:07.353Z,-4.96
2023-04-06T02:43:48.845Z,-4.97
2023-04-06T02:47:18.377Z,-5.09
2023-04-06T02:50:56.689Z,-5.35
2023-04-06T02:54:52.629Z,-5.43
2023-04-06T02:58:39.678Z,-5.41
2023-04-06T03:02:02.286Z,-5.42
2023-04-06T03:06:00.141Z,-5.48
2023-04-06T03:09:44.868Z,-5.52
2023-04-06T03:13:07.835Z,-5.51
2023-04-06T03:17:04.023Z,-5.42
2023-04-06T03:20:26.400Z,-5.41
2023-04-06T03:24:04.337Z,-5.54
2023-04-06T03:28:00.592Z,-5.63
2023-04-06T03:31:23.181Z,-5.72
2023-04-06T03:35:19.735Z,-5.79
2023-04-06T03:38:41.932Z,-5.86
2023-04-06T03:42:19.744Z,-5.97
2023-04-06T03:46:16.104Z,-5.99
2023-04-06T03:49:40.586Z,-5.98
2023-04-06T03:53:16.941Z,-5.95
2023-04-06T03:56:54.882Z,-5.97
2023-04-06T04:00:33.832Z,-6.11
2023-04-06T04:04:11.517Z,-6.16
2023-04-06T04:07:47.612Z,-6.14
2023-04-06T04:11:44.391Z,-6.10
2023-04-06T04:15:07.552Z,-6.07
2023-04-06T04:18:46.452Z,-6.05
2023-04-06T04:22:41.216Z,-5.98
2023-04-06T04:26:03.883Z,-5.88
2023-04-06T04:29:41.188Z,-5.88
2023-04-06T04:33:19.034Z,-5.85
2023-04-06T04:37:15.336Z,-5.77
2023-04-06T04:41:02.785Z,-5.70
2023-04-06T04:44:26.607Z,-5.67
2023-04-06T04:48:23.356Z,-5.56
2023-04-06T04:51:53.626Z,-5.38
2023-04-06T04:55:49.622Z,-5.22
2023-04-06T04:59:13.747Z,-5.16
2023-04-06T05:02:51.734Z,-5.07
2023-04-06T05:06:29.023Z,-4.99
2023-04-06T05:23:21.911Z,-4.28
2023-04-06T05:27:01.187Z,-4.31
2023-04-06T05:30:57.252Z,-4.33
2023-04-06T05:34:39.102Z,-4.32
2023-04-06T05:38:02.835Z,-4.27
2023-04-06T05:42:03.853Z,-4.21
2023-04-06T05:45:53.202Z,-4.13
2023-04-06T05:49:35.866Z,-4.04
2023-04-06T05:53:17.848Z,-3.93
2023-04-06T05:56:49.061Z,-3.78
2023-04-06T06:00:27.289Z,-3.65
2023-04-06T06:04:23.161Z,-3.51
2023-04-06T06:08:07.071Z,-3.39
2023-04-06T06:11:31.407Z,-3.25
2023-04-06T06:15:09.172Z,-3.08
2023-04-06T06:18:46.762Z,-2.94
2023-04-06T06:22:43.051Z,-2.78
2023-04-06T06:26:09.533Z,-2.61
2023-04-06T06:29:47.216Z,-2.41
2023-04-06T06:33:27.261Z,-2.20
2023-04-06T06:37:04.690Z,-2.04
2023-04-06T06:40:42.288Z,-1.90
2023-04-06T06:44:38.485Z,-1.68
2023-04-06T06:48:21.670Z,-1.53
2023-04-06T06:52:05.029Z,-1.40
2023-04-06T06:55:49.222Z,-1.29
2023-04-06T06:59:32.745Z,-1.12
2023-04-06T07:03:17.027Z,-0.99
2023-04-06T07:06:41.775Z,-0.93
2023-04-06T07:10:19.567Z,-0.87
2023-04-06T07:14:16.590Z,-0.89
2023-04-06T07:17:42.543Z,-0.77
2023-04-06T07:21:18.296Z,-0.70
2023-04-06T07:24:56.326Z,-0.64
2023-04-06T07:28:34.024Z,-0.57
2023-04-06T07:32:11.774Z,-0.56
2023-04-06T07:35:49.088Z,-0.52
2023-04-06T07:39:45.880Z,-0.41
2023-04-06T07:43:29.642Z,-0.21
2023-04-06T07:46:55.067Z,-0.17
2023-04-06T07:50:32.722Z,-0.17
2023-04-06T07:54:10.494Z,-0.12
2023-04-06T07:57:47.548Z,-0.08
2023-04-06T08:01:26.282Z,-0.07
2023-04-06T08:05:02.819Z,-0.11
2023-04-06T08:08:40.655Z,-0.02
2023-04-06T08:12:18.160Z,-0.05
2023-04-06T08:16:15.580Z,-0.03
2023-04-06T08:19:40.000Z,0.03
2023-04-06T08:23:17.703Z,0.13
2023-04-06T08:27:15.035Z,0.08
2023-04-06T08:30:59.071Z,0.09
2023-04-06T08:34:43.637Z,-0.05
2023-04-06T08:38:08.720Z,0.02
2023-04-06T08:42:04.563Z,0.10
2023-04-06T08:45:48.103Z,0.28
2023-04-06T08:49:13.834Z,0.37
2023-04-06T08:52:50.775Z,0.54
2023-04-06T08:56:29.292Z,0.70
2023-04-06T09:00:08.843Z,0.82
2023-04-06T09:03:44.208Z,0.84
2023-04-06T09:07:40.611Z,0.90
2023-04-06T09:11:23.695Z,1.15
2023-04-06T09:14:48.146Z,1.20
2023-04-06T09:18:32.818Z,1.19
2023-04-06T09:22:10.870Z,1.27
2023-04-06T09:25:41.011Z,1.24
2023-04-06T09:29:28.978Z,1.34
2023-04-06T09:32:58.413Z,1.39
2023-04-06T09:36:53.318Z,1.42
2023-04-06T09:40:39.911Z,1.38
2023-04-06T09:44:11.861Z,1.43
2023-04-06T09:47:47.985Z,1.64
2023-04-06T09:51:28.043Z,1.61
2023-04-06T09:55:42.272Z,1.77
2023-04-06T09:59:43.846Z,1.74
2023-04-06T10:04:09.328Z,2.00
2023-04-06T10:07:35.924Z,2.21
2023-04-06T10:11:12.078Z,2.22
2023-04-06T10:14:50.372Z,2.18
2023-04-06T10:18:28.035Z,2.18
2023-04-06T10:22:06.208Z,2.27
2023-04-06T10:25:57.989Z,2.18
2023-04-06T10:29:49.109Z,2.06
2023-04-06T10:33:17.339Z,2.04
2023-04-06T10:36:50.790Z,1.79
2023-04-06T10:40:28.924Z,1.74
2023-04-06T10:44:06.152Z,1.79
2023-04-06T10:47:43.740Z,1.73
2023-04-06T10:51:28.587Z,1.71
2023-04-06T10:55:00.483Z,1.79
2023-04-06T10:58:37.055Z,1.82
2023-04-06T11:02:23.810Z,1.62
2023-04-06T11:05:52.609Z,1.74
2023-04-06T11:09:32.645Z,1.86
2023-04-06T11:13:37.334Z,2.06
2023-04-06T11:17:01.636Z,2.00
2023-04-06T11:20:39.433Z,2.06
2023-04-06T11:24:21.343Z,2.11
2023-04-06T11:28:13.682Z,2.05
2023-04-06T11:32:04.527Z,1.97
2023-04-06T11:35:32.334Z,2.05
2023-04-06T11:39:07.971Z,1.97
2023-04-06T11:42:53.577Z,1.68
2023-04-06T11:46:21.873Z,1.73
2023-04-06T11:50:14.231Z,1.83
2023-04-06T11:53:49.051Z,1.74
2023-04-06T11:57:37.935Z,1.63
2023-04-06T12:01:06.031Z,1.57
2023-04-06T12:04:40.093Z,1.39
2023-04-06T12:08:17.391Z,1.28
2023-04-06T12:12:13.941Z,1.45
2023-04-06T12:15:38.267Z,1.52
2023-04-06T12:19:16.068Z,1.55
2023-04-06T12:22:53.225Z,1.47
2023-04-06T12:26:32.074Z,1.34
2023-04-06T12:30:09.445Z,1.31
2023-04-06T12:34:05.315Z,1.29
2023-04-06T12:37:30.388Z,0.94
2023-04-06T12:41:07.053Z,0.77
2023-04-06T12:45:03.897Z,0.80
2023-04-06T12:48:28.490Z,0.86
2023-04-06T12:52:24.734Z,0.95
2023-04-06T12:55:49.210Z,0.82
2023-04-06T12:59:27.016Z,0.72
2023-04-06T13:03:24.036Z,0.63
2023-04-06T13:06:48.339Z,0.59
2023-04-06T13:10:26.605Z,0.58
2023-04-06T13:14:03.677Z,0.70
2023-04-06T13:18:00.871Z,0.60
2023-04-06T13:21:44.169Z,0.49
2023-04-06T13:25:09.342Z,0.44
2023-04-06T13:28:46.795Z,0.33
2023-04-06T13:32:24.290Z,0.29
2023-04-06T13:36:01.975Z,0.12
2023-04-06T13:39:39.635Z,0.13
2023-04-06T13:43:20.200Z,0.15
2023-04-06T13:46:55.559Z,0.19
2023-04-06T13:50:33.763Z,0.19
2023-04-06T13:54:29.238Z,0.20
2023-04-06T13:57:53.672Z,0.29
2023-04-06T14:01:31.187Z,0.33
2023-04-06T14:05:09.584Z,0.32
2023-04-06T14:09:05.666Z,0.39
2023-04-06T14:12:30.200Z,0.33
2023-04-06T14:16:08.584Z,0.21
2023-04-06T14:19:45.488Z,0.17
2023-04-06T14:23:42.460Z,0.15
2023-04-06T14:27:07.400Z,0.14
2023-04-06T14:31:15.327Z,0.19
2023-04-06T14:34:39.924Z,0.15
2023-04-06T14:38:36.725Z,0.16
2023-04-06T14:42:20.328Z,0.17
2023-04-06T14:45:44.637Z,0.13
2023-04-06T14:49:41.142Z,0.13
2023-04-06T14:53:05.738Z,0.09
2023-04-06T14:56:44.079Z,-0.05
2023-04-06T15:00:21.455Z,-0.08
2023-04-06T15:03:58.458Z,-0.07
2023-04-06T15:07:36.070Z,-0.15
2023-04-06T15:11:14.352Z,-0.15
2023-04-06T15:15:10.988Z,-0.14
2023-04-06T15:18:36.322Z,-0.13
2023-04-06T15:22:12.751Z,-0.14
2023-04-06T15:25:50.734Z,-0.15
2023-04-06T15:29:28.041Z,-0.19
2023-04-06T15:33:08.102Z,-0.15
2023-04-06T15:37:04.213Z,-0.10
2023-04-06T15:40:28.395Z,-0.13
2023-04-06T15:44:25.787Z,-0.14
2023-04-06T15:48:09.276Z,-0.13
2023-04-06T15:51:33.768Z,-0.20
2023-04-06T15:55:11.028Z,-0.24
2023-04-06T15:58:48.789Z,-0.27
2023-04-06T16:02:27.032Z,-0.35
2023-04-06T16:06:08.998Z,-0.39
2023-04-06T16:10:00.624Z,-0.45
2023-04-06T16:13:24.930Z,-0.49
2023-04-06T16:17:21.232Z,-0.48
2023-04-06T16:20:46.131Z,-0.53
2023-04-06T16:24:41.899Z,-0.55
2023-04-06T16:28:25.070Z,-0.59
2023-04-06T16:31:49.306Z,-0.64
2023-04-06T16:35:27.121Z,-0.61
2023-04-06T16:39:23.244Z,-0.61
2023-04-06T16:42:48.302Z,-0.63
2023-04-06T16:46:35.903Z,-0.68
2023-04-06T16:50:21.725Z,-0.70
2023-04-06T16:53:47.924Z,-0.72
2023-04-06T16:57:42.356Z,-0.73
2023-04-06T17:01:07.225Z,-0.69
2023-04-06T17:04:45.416Z,-0.66
2023-04-06T17:08:42.609Z,-0.60
2023-04-06T17:12:09.467Z,-0.57
2023-04-06T17:15:45.520Z,-0.51
2023-04-06T17:19:23.207Z,-0.47
2023-04-06T17:23:00.928Z,-0.52
2023-04-06T17:26:57.433Z,-0.57
2023-04-06T17:30:22.382Z,-0.55
2023-04-06T17:33:59.999Z,-0.53
2023-04-06T17:37:56.376Z,-0.54
2023-04-06T17:41:39.817Z,-0.49
2023-04-06T17:45:04.376Z,-0.49
2023-04-06T17:48:43.974Z,-0.53
2023-04-06T17:52:19.472Z,-0.51
2023-04-06T17:55:57.339Z,-0.53
2023-04-06T17:59:35.354Z,-0.53
2023-04-06T18:03:31.856Z,-0.45
2023-04-06T18:06:56.802Z,-0.38
2023-04-06T18:10:53.472Z,-0.33
2023-04-06T18:14:19.006Z,-0.33
2023-04-06T18:17:56.865Z,-0.38
2023-04-06T18:21:53.280Z,-0.40
2023-04-06T18:25:18.727Z,-0.39
2023-04-06T18:28:56.045Z,-0.42
2023-04-06T18:32:33.301Z,-0.47
2023-04-06T18:36:30.766Z,-0.45
2023-04-06T18:40:31.319Z,-0.49
2023-04-06T18:44:14.621Z,-0.49
2023-04-06T18:47:41.749Z,-0.51
2023-04-06T18:51:41.354Z,-0.50
2023-04-06T18:55:07.422Z,-0.56
2023-04-06T18:59:02.345Z,-0.56
2023-04-06T19:02:26.732Z,-0.55
2023-04-06T19:06:07.845Z,-0.56
2023-04-06T19:09:41.964Z,-0.60
2023-04-06T19:13:38.505Z,-0.62
2023-04-06T19:17:04.147Z,-0.59
2023-04-06T19:20:40.928Z,-0.59
2023-04-06T19:24:18.706Z,-0.58
2023-04-06T19:27:56.712Z,-0.57
2023-04-06T19:31:53.221Z,-0.54
2023-04-06T19:35:17.961Z,-0.58
2023-04-06T19:39:16.693Z,-0.56
2023-04-06T19:42:41.646Z,-0.55
2023-04-06T19:46:38.434Z,-0.58
2023-04-06T19:50:23.297Z,-0.57
2023-04-06T19:54:07.284Z,-0.53
2023-04-06T19:57:51.792Z,-0.53
2023-04-06T20:01:16.018Z,-0.55
2023-04-06T20:04:53.502Z,-0.54
2023-04-06T20:08:31.451Z,-0.52
2023-04-06T20:12:09.214Z,-0.52
2023-04-06T20:15:46.723Z,-0.53
2023-04-06T20:19:24.528Z,-0.52
2023-04-06T20:23:02.114Z,-0.51
2023-04-06T20:26:40.318Z,-0.55
2023-04-06T20:30:36.526Z,-0.57
2023-04-06T20:34:01.611Z,-0.54
2023-04-06T20:37:38.741Z,-0.55
2023-04-06T20:41:16.565Z,-0.56
2023-04-06T20:44:57.024Z,-0.59
2023-04-06T20:48:33.597Z,-0.57
2023-04-06T20:52:09.609Z,-0.54
2023-04-06T20:56:05.739Z,-0.57
2023-04-06T20:59:30.301Z,-0.56
2023-04-06T21:03:27.124Z,-0.53
2023-04-06T21:06:51.864Z,-0.52
2023-04-06T21:10:48.344Z,-0.53
2023-04-06T21:14:13.372Z,-0.50
2023-04-06T21:17:51.229Z,-0.47
2023-04-06T21:21:47.660Z,-0.48
2023-04-06T21:25:31.814Z,-0.43
2023-04-06T21:28:56.238Z,-0.43
2023-04-06T21:32:34.720Z,-0.45
2023-04-06T21:36:11.550Z,-0.45
2023-04-06T21:39:49.148Z,-0.47
2023-04-06T21:43:26.806Z,-0.48
2023-04-06T21:47:04.670Z,-0.48
2023-04-06T21:50:42.279Z,-0.47
2023-04-06T21:54:19.860Z,-0.46
2023-04-06T21:57:57.406Z,-0.46
2023-04-06T22:01:56.658Z,-0.46
2023-04-06T22:05:40.478Z,-0.48
2023-04-06T22:09:05.659Z,-0.49
2023-04-06T22:12:42.779Z,-0.46
2023-04-06T22:16:20.146Z,-0.47
2023-04-06T22:19:58.045Z,-0.51
2023-04-06T22:23:36.087Z,-0.48
2023-04-06T22:27:13.258Z,-0.47
2023-04-06T22:30:50.838Z,-0.47
2023-04-06T22:34:47.580Z,-0.42
2023-04-06T22:38:30.442Z,-0.40
2023-04-06T22:41:54.837Z,-0.39
2023-04-06T22:45:32.189Z,-0.42
2023-04-06T22:49:10.128Z,-0.45
2023-04-06T22:52:47.741Z,-0.40
2023-04-06T22:56:25.747Z,-0.42
2023-04-06T23:00:24.266Z,-0.39
2023-04-06T23:04:09.309Z,-0.36
2023-04-06T23:07:52.648Z,-0.34
2023-04-06T23:11:36.094Z,-0.36
2023-04-06T23:15:00.523Z,-0.39
2023-04-06T23:18:39.751Z,-0.36
2023-04-06T23:22:34.651Z,-0.37
2023-04-06T23:25:59.094Z,-0.38
2023-04-06T23:29:57.036Z,-0.37
2023-04-06T23:33:22.684Z,-0.40
2023-04-06T23:37:03.214Z,-0.42
2023-04-06T23:40:38.677Z,-0.37
2023-04-06T23:44:34.724Z,-0.33
2023-04-06T23:48:18.190Z,-0.31
2023-04-06T23:52:01.918Z,-0.30
2023-04-06T23:55:48.039Z,-0.27
2023-04-06T23:59:12.258Z,-0.28
